sensor_id;sensor_type;location;lat;lon;timestamp;P1;durP1;ratioP1;P2;durP2;ratioP2
15312;SDS011;7757;52.626;4.746;2023-02-28T00:02:43;8.70;;;1.90;;
15312;SDS011;7757;52.626;4.746;2023-02-28T00:05:29;7.38;;;1.73;;
15312;SDS011;7757;52.626;4.746;2023-02-28T00:08:15;8.85;;;1.90;;
15312;SDS011;7757;52.626;4.746;2023-02-28T00:11:01;7.15;;;1.70;;
15312;SDS011;7757;52.626;4.746;2023-02-28T00:13:48;11.05;;;1.92;;
15312;SDS011;7757;52.626;4.746;2023-02-28T00:16:34;9.85;;;1.88;;
15312;SDS011;7757;52.626;4.746;2023-02-28T00:19:19;6.85;;;1.52;;
15312;SDS011;7757;52.626;4.746;2023-02-28T00:22:04;6.63;;;1.60;;
15312;SDS011;7757;52.626;4.746;2023-02-28T00:24:50;10.45;;;2.17;;
15312;SDS011;7757;52.626;4.746;2023-02-28T00:27:35;6.75;;;1.50;;
15312;SDS011;7757;52.626;4.746;2023-02-28T00:30:23;8.43;;;1.60;;
15312;SDS011;7757;52.626;4.746;2023-02-28T00:33:09;6.35;;;1.60;;
15312;SDS011;7757;52.626;4.746;2023-02-28T00:36:00;5.95;;;1.70;;
15312;SDS011;7757;52.626;4.746;2023-02-28T00:38:48;8.77;;;1.70;;
15312;SDS011;7757;52.626;4.746;2023-02-28T00:41:33;7.00;;;1.63;;
15312;SDS011;7757;52.626;4.746;2023-02-28T00:44:19;6.10;;;1.58;;
15312;SDS011;7757;52.626;4.746;2023-02-28T00:47:06;9.18;;;1.75;;
15312;SDS011;7757;52.626;4.746;2023-02-28T00:49:51;7.55;;;1.67;;
15312;SDS011;7757;52.626;4.746;2023-02-28T00:52:37;6.20;;;1.40;;
15312;SDS011;7757;52.626;4.746;2023-02-28T00:55:22;6.82;;;1.70;;
15312;SDS011;7757;52.626;4.746;2023-02-28T00:58:07;7.38;;;1.50;;
15312;SDS011;7757;52.626;4.746;2023-02-28T01:00:53;6.35;;;1.50;;
15312;SDS011;7757;52.626;4.746;2023-02-28T01:03:40;6.57;;;1.70;;
15312;SDS011;7757;52.626;4.746;2023-02-28T01:06:26;6.40;;;1.50;;
15312;SDS011;7757;52.626;4.746;2023-02-28T01:09:11;8.10;;;1.75;;
15312;SDS011;7757;52.626;4.746;2023-02-28T01:11:57;8.32;;;1.65;;
15312;SDS011;7757;52.626;4.746;2023-02-28T01:14:42;6.60;;;1.50;;
15312;SDS011;7757;52.626;4.746;2023-02-28T01:17:27;8.38;;;1.50;;
15312;SDS011;7757;52.626;4.746;2023-02-28T01:20:14;5.43;;;1.50;;
15312;SDS011;7757;52.626;4.746;2023-02-28T01:22:59;6.18;;;1.52;;
15312;SDS011;7757;52.626;4.746;2023-02-28T01:25:45;6.45;;;1.65;;
15312;SDS011;7757;52.626;4.746;2023-02-28T01:28:30;5.80;;;1.50;;
15312;SDS011;7757;52.626;4.746;2023-02-28T01:31:16;6.93;;;1.50;;
15312;SDS011;7757;52.626;4.746;2023-02-28T01:34:02;5.90;;;1.30;;
15312;SDS011;7757;52.626;4.746;2023-02-28T01:36:49;4.70;;;1.30;;
15312;SDS011;7757;52.626;4.746;2023-02-28T01:39:34;6.45;;;1.50;;
15312;SDS011;7757;52.626;4.746;2023-02-28T01:42:20;5.43;;;1.20;;
15312;SDS011;7757;52.626;4.746;2023-02-28T01:45:11;4.80;;;1.45;;
15312;SDS011;7757;52.626;4.746;2023-02-28T01:48:05;5.32;;;1.42;;
15312;SDS011;7757;52.626;4.746;2023-02-28T01:50:53;5.13;;;1.30;;
15312;SDS011;7757;52.626;4.746;2023-02-28T01:53:47;4.80;;;1.40;;
15312;SDS011;7757;52.626;4.746;2023-02-28T01:56:36;5.45;;;1.23;;
15312;SDS011;7757;52.626;4.746;2023-02-28T01:59:22;6.38;;;1.35;;
15312;SDS011;7757;52.626;4.746;2023-02-28T02:02:15;7.85;;;1.35;;
15312;SDS011;7757;52.626;4.746;2023-02-28T02:05:05;5.97;;;1.30;;
15312;SDS011;7757;52.626;4.746;2023-02-28T02:07:54;5.20;;;1.45;;
15312;SDS011;7757;52.626;4.746;2023-02-28T02:10:43;6.03;;;1.40;;
15312;SDS011;7757;52.626;4.746;2023-02-28T02:13:34;5.90;;;1.30;;
15312;SDS011;7757;52.626;4.746;2023-02-28T02:16:32;4.45;;;1.20;;
15312;SDS011;7757;52.626;4.746;2023-02-28T02:19:32;7.13;;;1.60;;
15312;SDS011;7757;52.626;4.746;2023-02-28T02:22:46;4.68;;;1.27;;
15312;SDS011;7757;52.626;4.746;2023-02-28T02:25:52;6.07;;;1.35;;
15312;SDS011;7757;52.626;4.746;2023-02-28T02:31:54;6.95;;;1.30;;
15312;SDS011;7757;52.626;4.746;2023-02-28T02:34:57;5.85;;;1.42;;
15312;SDS011;7757;52.626;4.746;2023-02-28T02:37:50;4.85;;;1.27;;
15312;SDS011;7757;52.626;4.746;2023-02-28T02:40:43;6.82;;;1.50;;
15312;SDS011;7757;52.626;4.746;2023-02-28T02:43:34;6.50;;;1.40;;
15312;SDS011;7757;52.626;4.746;2023-02-28T02:46:27;6.75;;;1.80;;
15312;SDS011;7757;52.626;4.746;2023-02-28T02:49:17;6.07;;;1.40;;
15312;SDS011;7757;52.626;4.746;2023-02-28T02:52:07;4.97;;;1.10;;
15312;SDS011;7757;52.626;4.746;2023-02-28T02:54:55;6.20;;;1.40;;
15312;SDS011;7757;52.626;4.746;2023-02-28T02:57:44;5.68;;;1.30;;
15312;SDS011;7757;52.626;4.746;2023-02-28T03:00:32;7.00;;;1.30;;
15312;SDS011;7757;52.626;4.746;2023-02-28T03:03:22;6.03;;;1.40;;
15312;SDS011;7757;52.626;4.746;2023-02-28T03:06:14;3.45;;;1.20;;
15312;SDS011;7757;52.626;4.746;2023-02-28T03:09:01;7.07;;;1.45;;
15312;SDS011;7757;52.626;4.746;2023-02-28T03:11:48;7.07;;;1.50;;
15312;SDS011;7757;52.626;4.746;2023-02-28T03:14:39;5.78;;;1.30;;
15312;SDS011;7757;52.626;4.746;2023-02-28T03:17:36;4.88;;;1.30;;
15312;SDS011;7757;52.626;4.746;2023-02-28T03:20:35;6.32;;;1.40;;
15312;SDS011;7757;52.626;4.746;2023-02-28T03:23:27;5.30;;;1.40;;
15312;SDS011;7757;52.626;4.746;2023-02-28T03:26:21;4.18;;;1.20;;
15312;SDS011;7757;52.626;4.746;2023-02-28T03:29:11;5.85;;;1.20;;
15312;SDS011;7757;52.626;4.746;2023-02-28T03:32:02;4.28;;;1.35;;
15312;SDS011;7757;52.626;4.746;2023-02-28T03:34:51;9.32;;;1.35;;
15312;SDS011;7757;52.626;4.746;2023-02-28T03:37:42;4.47;;;1.27;;
15312;SDS011;7757;52.626;4.746;2023-02-28T03:40:30;5.10;;;1.20;;
15312;SDS011;7757;52.626;4.746;2023-02-28T03:43:20;5.30;;;1.20;;
15312;SDS011;7757;52.626;4.746;2023-02-28T03:46:10;5.28;;;1.40;;
15312;SDS011;7757;52.626;4.746;2023-02-28T03:51:53;4.35;;;1.15;;
15312;SDS011;7757;52.626;4.746;2023-02-28T03:54:42;5.82;;;1.30;;
15312;SDS011;7757;52.626;4.746;2023-02-28T03:57:33;4.55;;;1.13;;
15312;SDS011;7757;52.626;4.746;2023-02-28T04:00:26;6.15;;;1.40;;
15312;SDS011;7757;52.626;4.746;2023-02-28T04:03:15;3.95;;;1.08;;
15312;SDS011;7757;52.626;4.746;2023-02-28T04:06:00;4.28;;;1.30;;
15312;SDS011;7757;52.626;4.746;2023-02-28T04:08:47;5.97;;;1.30;;
15312;SDS011;7757;52.626;4.746;2023-02-28T04:11:33;6.53;;;1.48;;
15312;SDS011;7757;52.626;4.746;2023-02-28T04:14:21;3.90;;;1.10;;
15312;SDS011;7757;52.626;4.746;2023-02-28T04:17:07;4.20;;;1.00;;
15312;SDS011;7757;52.626;4.746;2023-02-28T04:19:56;5.65;;;1.30;;
15312;SDS011;7757;52.626;4.746;2023-02-28T04:22:41;6.85;;;1.40;;
15312;SDS011;7757;52.626;4.746;2023-02-28T04:25:27;3.88;;;1.02;;
15312;SDS011;7757;52.626;4.746;2023-02-28T04:28:12;6.97;;;1.10;;
15312;SDS011;7757;52.626;4.746;2023-02-28T04:30:58;4.20;;;1.13;;
15312;SDS011;7757;52.626;4.746;2023-02-28T04:33:47;6.20;;;2.00;;
15312;SDS011;7757;52.626;4.746;2023-02-28T04:36:32;6.10;;;1.15;;
15312;SDS011;7757;52.626;4.746;2023-02-28T04:39:18;6.30;;;1.33;;
15312;SDS011;7757;52.626;4.746;2023-02-28T04:42:03;3.90;;;1.15;;
15312;SDS011;7757;52.626;4.746;2023-02-28T04:44:49;3.28;;;1.13;;
15312;SDS011;7757;52.626;4.746;2023-02-28T04:47:34;4.82;;;1.20;;
15312;SDS011;7757;52.626;4.746;2023-02-28T04:50:22;4.82;;;1.20;;
15312;SDS011;7757;52.626;4.746;2023-02-28T04:53:07;4.43;;;1.20;;
15312;SDS011;7757;52.626;4.746;2023-02-28T04:55:53;7.03;;;1.50;;
15312;SDS011;7757;52.626;4.746;2023-02-28T04:58:38;5.80;;;1.23;;
15312;SDS011;7757;52.626;4.746;2023-02-28T05:01:25;4.53;;;1.30;;
15312;SDS011;7757;52.626;4.746;2023-02-28T05:04:12;5.35;;;1.30;;
15312;SDS011;7757;52.626;4.746;2023-02-28T05:06:59;5.00;;;1.20;;
15312;SDS011;7757;52.626;4.746;2023-02-28T05:09:44;5.35;;;1.17;;
15312;SDS011;7757;52.626;4.746;2023-02-28T05:12:29;4.63;;;1.13;;
15312;SDS011;7757;52.626;4.746;2023-02-28T05:15:15;4.95;;;1.17;;
15312;SDS011;7757;52.626;4.746;2023-02-28T05:18:02;2.50;;;1.00;;
15312;SDS011;7757;52.626;4.746;2023-02-28T05:20:47;5.22;;;1.10;;
15312;SDS011;7757;52.626;4.746;2023-02-28T05:23:34;3.33;;;0.95;;
15312;SDS011;7757;52.626;4.746;2023-02-28T05:26:19;4.22;;;0.98;;
15312;SDS011;7757;52.626;4.746;2023-02-28T05:29:05;4.07;;;1.30;;
15312;SDS011;7757;52.626;4.746;2023-02-28T05:31:51;4.78;;;1.25;;
15312;SDS011;7757;52.626;4.746;2023-02-28T05:34:38;6.90;;;1.15;;
15312;SDS011;7757;52.626;4.746;2023-02-28T05:37:23;4.50;;;1.15;;
15312;SDS011;7757;52.626;4.746;2023-02-28T05:40:11;5.65;;;1.20;;
15312;SDS011;7757;52.626;4.746;2023-02-28T05:42:57;8.13;;;1.20;;
15312;SDS011;7757;52.626;4.746;2023-02-28T05:45:42;5.68;;;1.48;;
15312;SDS011;7757;52.626;4.746;2023-02-28T05:48:28;3.95;;;1.00;;
15312;SDS011;7757;52.626;4.746;2023-02-28T05:51:13;7.05;;;1.50;;
15312;SDS011;7757;52.626;4.746;2023-02-28T05:53:59;4.68;;;1.10;;
15312;SDS011;7757;52.626;4.746;2023-02-28T05:56:46;8.93;;;1.40;;
15312;SDS011;7757;52.626;4.746;2023-02-28T05:59:31;2.40;;;0.90;;
15312;SDS011;7757;52.626;4.746;2023-02-28T06:02:16;6.45;;;1.50;;
15312;SDS011;7757;52.626;4.746;2023-02-28T06:05:02;4.57;;;1.17;;
15312;SDS011;7757;52.626;4.746;2023-02-28T06:07:48;5.10;;;1.20;;
15312;SDS011;7757;52.626;4.746;2023-02-28T06:10:33;5.30;;;1.20;;
15312;SDS011;7757;52.626;4.746;2023-02-28T06:13:20;5.20;;;1.10;;
15312;SDS011;7757;52.626;4.746;2023-02-28T06:16:06;2.05;;;0.80;;
15312;SDS011;7757;52.626;4.746;2023-02-28T06:18:52;4.13;;;1.10;;
15312;SDS011;7757;52.626;4.746;2023-02-28T06:21:39;3.47;;;0.90;;
15312;SDS011;7757;52.626;4.746;2023-02-28T06:24:25;4.75;;;1.30;;
15312;SDS011;7757;52.626;4.746;2023-02-28T06:27:11;4.53;;;1.15;;
15312;SDS011;7757;52.626;4.746;2023-02-28T06:29:58;3.58;;;1.00;;
15312;SDS011;7757;52.626;4.746;2023-02-28T06:32:44;6.15;;;1.25;;
15312;SDS011;7757;52.626;4.746;2023-02-28T06:35:30;6.97;;;1.30;;
15312;SDS011;7757;52.626;4.746;2023-02-28T06:38:15;3.97;;;1.00;;
15312;SDS011;7757;52.626;4.746;2023-02-28T06:41:02;4.15;;;1.05;;
15312;SDS011;7757;52.626;4.746;2023-02-28T06:43:47;7.22;;;1.27;;
15312;SDS011;7757;52.626;4.746;2023-02-28T06:46:37;6.63;;;1.38;;
15312;SDS011;7757;52.626;4.746;2023-02-28T06:49:23;5.93;;;0.93;;
15312;SDS011;7757;52.626;4.746;2023-02-28T06:52:09;4.95;;;1.00;;
15312;SDS011;7757;52.626;4.746;2023-02-28T06:54:54;6.32;;;1.17;;
15312;SDS011;7757;52.626;4.746;2023-02-28T06:57:43;6.88;;;1.05;;
15312;SDS011;7757;52.626;4.746;2023-02-28T07:00:29;6.82;;;1.30;;
15312;SDS011;7757;52.626;4.746;2023-02-28T07:03:15;3.92;;;1.15;;
15312;SDS011;7757;52.626;4.746;2023-02-28T07:06:02;3.15;;;0.93;;
15312;SDS011;7757;52.626;4.746;2023-02-28T07:08:48;4.57;;;1.00;;
15312;SDS011;7757;52.626;4.746;2023-02-28T07:11:33;11.43;;;1.55;;
15312;SDS011;7757;52.626;4.746;2023-02-28T07:14:19;6.25;;;1.10;;
15312;SDS011;7757;52.626;4.746;2023-02-28T07:17:06;6.07;;;1.25;;
15312;SDS011;7757;52.626;4.746;2023-02-28T07:19:53;5.38;;;1.08;;
15312;SDS011;7757;52.626;4.746;2023-02-28T07:22:39;5.22;;;1.00;;
15312;SDS011;7757;52.626;4.746;2023-02-28T07:25:26;5.00;;;1.08;;
15312;SDS011;7757;52.626;4.746;2023-02-28T07:28:13;8.00;;;1.40;;
15312;SDS011;7757;52.626;4.746;2023-02-28T07:31:02;3.67;;;1.00;;
15312;SDS011;7757;52.626;4.746;2023-02-28T07:33:48;9.63;;;1.40;;
15312;SDS011;7757;52.626;4.746;2023-02-28T07:36:35;5.00;;;1.10;;
15312;SDS011;7757;52.626;4.746;2023-02-28T07:39:20;3.13;;;0.93;;
15312;SDS011;7757;52.626;4.746;2023-02-28T07:42:06;6.50;;;1.20;;
15312;SDS011;7757;52.626;4.746;2023-02-28T07:44:54;4.88;;;1.10;;
15312;SDS011;7757;52.626;4.746;2023-02-28T07:47:39;3.58;;;1.05;;
15312;SDS011;7757;52.626;4.746;2023-02-28T07:50:26;6.85;;;1.13;;
15312;SDS011;7757;52.626;4.746;2023-02-28T07:53:15;3.50;;;0.98;;
15312;SDS011;7757;52.626;4.746;2023-02-28T07:56:01;4.00;;;1.02;;
15312;SDS011;7757;52.626;4.746;2023-02-28T07:58:47;5.32;;;1.17;;
15312;SDS011;7757;52.626;4.746;2023-02-28T08:01:32;5.88;;;1.20;;
15312;SDS011;7757;52.626;4.746;2023-02-28T08:04:18;13.13;;;1.42;;
15312;SDS011;7757;52.626;4.746;2023-02-28T08:07:04;7.50;;;1.48;;
15312;SDS011;7757;52.626;4.746;2023-02-28T08:09:51;5.65;;;1.00;;
15312;SDS011;7757;52.626;4.746;2023-02-28T08:12:36;3.95;;;1.08;;
15312;SDS011;7757;52.626;4.746;2023-02-28T08:15:21;6.57;;;1.08;;
15312;SDS011;7757;52.626;4.746;2023-02-28T08:18:07;4.07;;;1.02;;
15312;SDS011;7757;52.626;4.746;2023-02-28T08:20:52;6.93;;;1.20;;
15312;SDS011;7757;52.626;4.746;2023-02-28T08:23:38;5.78;;;1.30;;
15312;SDS011;7757;52.626;4.746;2023-02-28T08:26:25;9.32;;;1.45;;
15312;SDS011;7757;52.626;4.746;2023-02-28T08:29:11;6.70;;;1.65;;
15312;SDS011;7757;52.626;4.746;2023-02-28T08:31:56;5.57;;;1.55;;
15312;SDS011;7757;52.626;4.746;2023-02-28T08:34:42;7.97;;;1.52;;
15312;SDS011;7757;52.626;4.746;2023-02-28T08:37:27;7.50;;;1.42;;
15312;SDS011;7757;52.626;4.746;2023-02-28T08:40:13;7.95;;;1.70;;
15312;SDS011;7757;52.626;4.746;2023-02-28T08:43:03;7.95;;;1.45;;
15312;SDS011;7757;52.626;4.746;2023-02-28T08:45:50;6.97;;;1.50;;
15312;SDS011;7757;52.626;4.746;2023-02-28T08:48:36;5.30;;;1.30;;
15312;SDS011;7757;52.626;4.746;2023-02-28T08:51:22;5.80;;;1.50;;
15312;SDS011;7757;52.626;4.746;2023-02-28T08:54:10;7.35;;;1.60;;
15312;SDS011;7757;52.626;4.746;2023-02-28T08:56:58;7.20;;;1.70;;
15312;SDS011;7757;52.626;4.746;2023-02-28T08:59:44;7.18;;;1.50;;
15312;SDS011;7757;52.626;4.746;2023-02-28T09:02:30;6.45;;;1.58;;
15312;SDS011;7757;52.626;4.746;2023-02-28T09:05:16;6.38;;;1.50;;
15312;SDS011;7757;52.626;4.746;2023-02-28T09:08:01;8.05;;;1.60;;
15312;SDS011;7757;52.626;4.746;2023-02-28T09:10:47;7.22;;;1.50;;
15312;SDS011;7757;52.626;4.746;2023-02-28T09:13:32;6.63;;;1.60;;
15312;SDS011;7757;52.626;4.746;2023-02-28T09:16:19;5.82;;;1.52;;
15312;SDS011;7757;52.626;4.746;2023-02-28T09:19:04;5.90;;;1.52;;
15312;SDS011;7757;52.626;4.746;2023-02-28T09:21:50;8.25;;;1.50;;
15312;SDS011;7757;52.626;4.746;2023-02-28T09:24:36;6.93;;;1.60;;
15312;SDS011;7757;52.626;4.746;2023-02-28T09:27:22;8.32;;;1.50;;
15312;SDS011;7757;52.626;4.746;2023-02-28T09:30:08;7.28;;;1.95;;
15312;SDS011;7757;52.626;4.746;2023-02-28T09:32:55;8.02;;;1.58;;
15312;SDS011;7757;52.626;4.746;2023-02-28T09:35:41;4.95;;;1.45;;
15312;SDS011;7757;52.626;4.746;2023-02-28T09:38:27;5.30;;;1.50;;
15312;SDS011;7757;52.626;4.746;2023-02-28T09:41:13;7.40;;;1.50;;
15312;SDS011;7757;52.626;4.746;2023-02-28T09:44:00;6.75;;;1.50;;
15312;SDS011;7757;52.626;4.746;2023-02-28T09:46:50;7.40;;;1.60;;
15312;SDS011;7757;52.626;4.746;2023-02-28T09:49:40;6.43;;;1.48;;
15312;SDS011;7757;52.626;4.746;2023-02-28T09:52:28;9.57;;;1.48;;
15312;SDS011;7757;52.626;4.746;2023-02-28T09:55:18;5.47;;;1.50;;
15312;SDS011;7757;52.626;4.746;2023-02-28T09:58:08;6.32;;;1.50;;
15312;SDS011;7757;52.626;4.746;2023-02-28T10:01:03;7.20;;;1.40;;
15312;SDS011;7757;52.626;4.746;2023-02-28T10:03:55;6.25;;;1.48;;
15312;SDS011;7757;52.626;4.746;2023-02-28T10:06:44;8.73;;;1.73;;
15312;SDS011;7757;52.626;4.746;2023-02-28T10:09:33;4.95;;;1.42;;
15312;SDS011;7757;52.626;4.746;2023-02-28T10:12:20;6.50;;;1.40;;
15312;SDS011;7757;52.626;4.746;2023-02-28T10:15:07;9.45;;;1.50;;
15312;SDS011;7757;52.626;4.746;2023-02-28T10:18:00;6.05;;;1.50;;
15312;SDS011;7757;52.626;4.746;2023-02-28T10:20:50;5.28;;;1.48;;
15312;SDS011;7757;52.626;4.746;2023-02-28T10:23:38;5.40;;;1.40;;
15312;SDS011;7757;52.626;4.746;2023-02-28T10:26:24;4.72;;;1.38;;
15312;SDS011;7757;52.626;4.746;2023-02-28T10:29:13;7.70;;;1.67;;
15312;SDS011;7757;52.626;4.746;2023-02-28T10:32:00;4.88;;;1.33;;
15312;SDS011;7757;52.626;4.746;2023-02-28T10:34:50;5.20;;;1.40;;
15312;SDS011;7757;52.626;4.746;2023-02-28T10:37:40;4.97;;;1.10;;
15312;SDS011;7757;52.626;4.746;2023-02-28T10:40:30;6.43;;;1.40;;
15312;SDS011;7757;52.626;4.746;2023-02-28T10:43:19;4.43;;;1.23;;
15312;SDS011;7757;52.626;4.746;2023-02-28T10:46:10;4.65;;;1.13;;
15312;SDS011;7757;52.626;4.746;2023-02-28T10:49:12;5.30;;;1.40;;
15312;SDS011;7757;52.626;4.746;2023-02-28T10:52:01;5.63;;;1.30;;
15312;SDS011;7757;52.626;4.746;2023-02-28T10:54:47;5.85;;;1.20;;
15312;SDS011;7757;52.626;4.746;2023-02-28T10:57:33;6.70;;;1.30;;
15312;SDS011;7757;52.626;4.746;2023-02-28T11:00:20;4.95;;;1.15;;
15312;SDS011;7757;52.626;4.746;2023-02-28T11:03:13;5.07;;;1.20;;
15312;SDS011;7757;52.626;4.746;2023-02-28T11:06:15;3.72;;;1.00;;
15312;SDS011;7757;52.626;4.746;2023-02-28T11:09:17;3.60;;;1.05;;
15312;SDS011;7757;52.626;4.746;2023-02-28T11:12:07;6.35;;;1.30;;
15312;SDS011;7757;52.626;4.746;2023-02-28T11:15:18;4.53;;;1.40;;
15312;SDS011;7757;52.626;4.746;2023-02-28T11:18:14;4.05;;;1.10;;
15312;SDS011;7757;52.626;4.746;2023-02-28T11:21:08;5.05;;;1.30;;
15312;SDS011;7757;52.626;4.746;2023-02-28T11:24:00;3.67;;;1.17;;
15312;SDS011;7757;52.626;4.746;2023-02-28T11:26:48;5.95;;;1.10;;
15312;SDS011;7757;52.626;4.746;2023-02-28T11:29:34;5.32;;;1.50;;
15312;SDS011;7757;52.626;4.746;2023-02-28T11:32:26;6.05;;;1.48;;
15312;SDS011;7757;52.626;4.746;2023-02-28T11:35:15;6.30;;;1.40;;
15312;SDS011;7757;52.626;4.746;2023-02-28T11:38:07;6.47;;;1.20;;
15312;SDS011;7757;52.626;4.746;2023-02-28T11:41:10;5.75;;;1.20;;
15312;SDS011;7757;52.626;4.746;2023-02-28T11:47:14;5.30;;;1.30;;
15312;SDS011;7757;52.626;4.746;2023-02-28T11:50:13;4.45;;;1.20;;
15312;SDS011;7757;52.626;4.746;2023-02-28T11:53:10;6.22;;;1.20;;
15312;SDS011;7757;52.626;4.746;2023-02-28T11:56:05;4.70;;;1.20;;
15312;SDS011;7757;52.626;4.746;2023-02-28T11:58:59;4.03;;;0.90;;
15312;SDS011;7757;52.626;4.746;2023-02-28T12:02:03;5.68;;;1.38;;
15312;SDS011;7757;52.626;4.746;2023-02-28T12:05:05;6.75;;;1.10;;
15312;SDS011;7757;52.626;4.746;2023-02-28T12:08:06;3.90;;;1.10;;
15312;SDS011;7757;52.626;4.746;2023-02-28T12:11:05;3.40;;;1.02;;
15312;SDS011;7757;52.626;4.746;2023-02-28T12:14:06;3.40;;;1.00;;
15312;SDS011;7757;52.626;4.746;2023-02-28T12:17:17;3.58;;;1.00;;
15312;SDS011;7757;52.626;4.746;2023-02-28T12:20:16;3.25;;;1.10;;
15312;SDS011;7757;52.626;4.746;2023-02-28T12:23:19;6.45;;;1.10;;
15312;SDS011;7757;52.626;4.746;2023-02-28T12:26:13;3.58;;;1.02;;
15312;SDS011;7757;52.626;4.746;2023-02-28T12:29:09;6.10;;;1.13;;
15312;SDS011;7757;52.626;4.746;2023-02-28T12:32:01;3.72;;;1.10;;
15312;SDS011;7757;52.626;4.746;2023-02-28T12:34:50;4.15;;;1.20;;
15312;SDS011;7757;52.626;4.746;2023-02-28T12:37:43;4.18;;;1.10;;
15312;SDS011;7757;52.626;4.746;2023-02-28T12:40:33;4.68;;;1.10;;
15312;SDS011;7757;52.626;4.746;2023-02-28T12:43:30;5.05;;;1.23;;
15312;SDS011;7757;52.626;4.746;2023-02-28T12:46:21;3.88;;;1.23;;
15312;SDS011;7757;52.626;4.746;2023-02-28T12:49:10;3.00;;;0.95;;
15312;SDS011;7757;52.626;4.746;2023-02-28T12:52:00;5.13;;;1.20;;
15312;SDS011;7757;52.626;4.746;2023-02-28T12:54:50;6.00;;;1.00;;
15312;SDS011;7757;52.626;4.746;2023-02-28T12:57:41;6.13;;;1.10;;
15312;SDS011;7757;52.626;4.746;2023-02-28T13:00:34;1.95;;;0.90;;
15312;SDS011;7757;52.626;4.746;2023-02-28T13:03:29;3.03;;;1.00;;
15312;SDS011;7757;52.626;4.746;2023-02-28T13:06:28;4.68;;;1.20;;
15312;SDS011;7757;52.626;4.746;2023-02-28T13:09:27;2.08;;;0.95;;
15312;SDS011;7757;52.626;4.746;2023-02-28T13:12:15;2.47;;;0.90;;
15312;SDS011;7757;52.626;4.746;2023-02-28T13:15:03;5.53;;;1.08;;
15312;SDS011;7757;52.626;4.746;2023-02-28T13:17:57;4.40;;;1.10;;
15312;SDS011;7757;52.626;4.746;2023-02-28T13:20:46;3.45;;;0.93;;
15312;SDS011;7757;52.626;4.746;2023-02-28T13:23:40;5.55;;;1.17;;
15312;SDS011;7757;52.626;4.746;2023-02-28T13:27:10;3.33;;;1.02;;
15312;SDS011;7757;52.626;4.746;2023-02-28T13:33:32;4.20;;;1.10;;
15312;SDS011;7757;52.626;4.746;2023-02-28T13:36:23;3.90;;;0.98;;
15312;SDS011;7757;52.626;4.746;2023-02-28T13:42:32;3.30;;;0.90;;
15312;SDS011;7757;52.626;4.746;2023-02-28T13:45:22;3.80;;;0.90;;
15312;SDS011;7757;52.626;4.746;2023-02-28T13:48:16;5.30;;;1.10;;
15312;SDS011;7757;52.626;4.746;2023-02-28T13:54:27;1.88;;;0.85;;
15312;SDS011;7757;52.626;4.746;2023-02-28T13:57:28;4.70;;;1.00;;
15312;SDS011;7757;52.626;4.746;2023-02-28T14:00:23;3.97;;;0.88;;
15312;SDS011;7757;52.626;4.746;2023-02-28T14:03:23;4.13;;;1.15;;
15312;SDS011;7757;52.626;4.746;2023-02-28T14:06:19;2.85;;;0.90;;
15312;SDS011;7757;52.626;4.746;2023-02-28T14:09:17;4.60;;;1.00;;
15312;SDS011;7757;52.626;4.746;2023-02-28T14:18:31;3.42;;;0.98;;
15312;SDS011;7757;52.626;4.746;2023-02-28T14:21:21;3.55;;;0.93;;
15312;SDS011;7757;52.626;4.746;2023-02-28T14:27:42;4.60;;;1.20;;
15312;SDS011;7757;52.626;4.746;2023-02-28T14:30:40;5.07;;;1.10;;
15312;SDS011;7757;52.626;4.746;2023-02-28T14:33:42;2.10;;;0.90;;
15312;SDS011;7757;52.626;4.746;2023-02-28T14:36:43;3.20;;;0.90;;
15312;SDS011;7757;52.626;4.746;2023-02-28T14:39:29;1.90;;;0.80;;
15312;SDS011;7757;52.626;4.746;2023-02-28T14:45:21;5.90;;;1.10;;
15312;SDS011;7757;52.626;4.746;2023-02-28T14:48:08;3.92;;;1.00;;
15312;SDS011;7757;52.626;4.746;2023-02-28T14:50:55;5.10;;;1.02;;
15312;SDS011;7757;52.626;4.746;2023-02-28T14:53:42;3.72;;;1.00;;
15312;SDS011;7757;52.626;4.746;2023-02-28T14:56:30;5.57;;;1.30;;
15312;SDS011;7757;52.626;4.746;2023-02-28T14:59:26;5.15;;;1.00;;
15312;SDS011;7757;52.626;4.746;2023-02-28T15:02:21;2.85;;;0.98;;
15312;SDS011;7757;52.626;4.746;2023-02-28T15:05:25;4.68;;;1.00;;
15312;SDS011;7757;52.626;4.746;2023-02-28T15:08:14;6.20;;;1.00;;
15312;SDS011;7757;52.626;4.746;2023-02-28T15:11:01;4.53;;;1.08;;
15312;SDS011;7757;52.626;4.746;2023-02-28T15:13:49;2.08;;;0.90;;
15312;SDS011;7757;52.626;4.746;2023-02-28T15:16:40;2.75;;;1.00;;
15312;SDS011;7757;52.626;4.746;2023-02-28T15:19:29;11.20;;;1.00;;
15312;SDS011;7757;52.626;4.746;2023-02-28T15:22:17;3.42;;;1.00;;
15312;SDS011;7757;52.626;4.746;2023-02-28T15:25:06;2.38;;;0.80;;
15312;SDS011;7757;52.626;4.746;2023-02-28T15:27:55;5.85;;;1.13;;
15312;SDS011;7757;52.626;4.746;2023-02-28T15:30:50;3.65;;;0.98;;
15312;SDS011;7757;52.626;4.746;2023-02-28T15:33:39;3.25;;;1.08;;
15312;SDS011;7757;52.626;4.746;2023-02-28T15:36:37;3.00;;;0.82;;
15312;SDS011;7757;52.626;4.746;2023-02-28T15:39:23;3.60;;;1.00;;
15312;SDS011;7757;52.626;4.746;2023-02-28T15:42:11;2.63;;;0.68;;
15312;SDS011;7757;52.626;4.746;2023-02-28T15:44:56;2.63;;;1.00;;
15312;SDS011;7757;52.626;4.746;2023-02-28T15:47:44;6.97;;;0.95;;
15312;SDS011;7757;52.626;4.746;2023-02-28T15:50:31;5.35;;;1.20;;
15312;SDS011;7757;52.626;4.746;2023-02-28T15:53:18;1.75;;;0.70;;
15312;SDS011;7757;52.626;4.746;2023-02-28T15:56:12;2.38;;;0.75;;
15312;SDS011;7757;52.626;4.746;2023-02-28T15:59:06;3.15;;;1.00;;
15312;SDS011;7757;52.626;4.746;2023-02-28T16:02:11;4.90;;;1.00;;
15312;SDS011;7757;52.626;4.746;2023-02-28T16:05:12;4.55;;;1.00;;
15312;SDS011;7757;52.626;4.746;2023-02-28T16:08:13;2.97;;;0.80;;
15312;SDS011;7757;52.626;4.746;2023-02-28T16:11:00;2.67;;;0.85;;
15312;SDS011;7757;52.626;4.746;2023-02-28T16:13:45;2.08;;;0.75;;
15312;SDS011;7757;52.626;4.746;2023-02-28T16:16:31;3.00;;;0.68;;
15312;SDS011;7757;52.626;4.746;2023-02-28T16:19:18;2.05;;;0.80;;
15312;SDS011;7757;52.626;4.746;2023-02-28T16:22:03;2.63;;;0.88;;
15312;SDS011;7757;52.626;4.746;2023-02-28T16:24:50;2.40;;;0.75;;
15312;SDS011;7757;52.626;4.746;2023-02-28T16:27:36;2.17;;;0.77;;
15312;SDS011;7757;52.626;4.746;2023-02-28T16:30:23;3.55;;;0.90;;
15312;SDS011;7757;52.626;4.746;2023-02-28T16:33:09;3.83;;;0.80;;
15312;SDS011;7757;52.626;4.746;2023-02-28T16:35:54;2.10;;;0.80;;
15312;SDS011;7757;52.626;4.746;2023-02-28T16:38:40;3.00;;;0.80;;
15312;SDS011;7757;52.626;4.746;2023-02-28T16:41:27;1.95;;;0.65;;
15312;SDS011;7757;52.626;4.746;2023-02-28T16:44:14;2.53;;;0.80;;
15312;SDS011;7757;52.626;4.746;2023-02-28T16:47:10;1.98;;;0.90;;
15312;SDS011;7757;52.626;4.746;2023-02-28T16:49:56;3.40;;;0.95;;
15312;SDS011;7757;52.626;4.746;2023-02-28T16:52:41;2.60;;;0.90;;
15312;SDS011;7757;52.626;4.746;2023-02-28T16:55:27;2.72;;;0.85;;
15312;SDS011;7757;52.626;4.746;2023-02-28T16:58:15;2.50;;;0.70;;
15312;SDS011;7757;52.626;4.746;2023-02-28T17:01:03;3.33;;;0.77;;
15312;SDS011;7757;52.626;4.746;2023-02-28T17:03:49;2.05;;;0.70;;
15312;SDS011;7757;52.626;4.746;2023-02-28T17:06:34;2.78;;;0.95;;
15312;SDS011;7757;52.626;4.746;2023-02-28T17:09:21;2.22;;;0.90;;
15312;SDS011;7757;52.626;4.746;2023-02-28T17:12:10;2.05;;;0.73;;
15312;SDS011;7757;52.626;4.746;2023-02-28T17:14:57;2.90;;;0.90;;
15312;SDS011;7757;52.626;4.746;2023-02-28T17:17:43;2.05;;;0.90;;
15312;SDS011;7757;52.626;4.746;2023-02-28T17:20:30;2.00;;;0.68;;
15312;SDS011;7757;52.626;4.746;2023-02-28T17:23:15;2.20;;;0.90;;
15312;SDS011;7757;52.626;4.746;2023-02-28T17:26:01;1.77;;;0.80;;
15312;SDS011;7757;52.626;4.746;2023-02-28T17:28:50;2.40;;;1.10;;
15312;SDS011;7757;52.626;4.746;2023-02-28T17:31:39;2.28;;;0.90;;
15312;SDS011;7757;52.626;4.746;2023-02-28T17:34:24;2.10;;;0.82;;
15312;SDS011;7757;52.626;4.746;2023-02-28T17:37:09;3.15;;;0.90;;
15312;SDS011;7757;52.626;4.746;2023-02-28T17:39:54;3.38;;;1.10;;
15312;SDS011;7757;52.626;4.746;2023-02-28T17:42:40;3.85;;;0.90;;
15312;SDS011;7757;52.626;4.746;2023-02-28T17:45:25;4.40;;;1.10;;
15312;SDS011;7757;52.626;4.746;2023-02-28T17:48:12;3.17;;;0.90;;